Terminal Aerodrome Forecast
Issued by NWS

Home | Current Version | Previous Version | Text Only | Print | Product List | Glossary On
Versions: 1 2 3 4 5 6 7 8 9 10 11 12 13
000
FTUS45 KGJT 221120
TAFVEL
TAF
KVEL 221120Z 2212/2312 19005KT P6SM SCT090 BKN200
     FM221300 02005KT P6SM BKN090 OVC200
     FM221800 20005KT P6SM BKN080 OVC110
     FM230200 28005KT P6SM SCT080 BKN110=

USA.gov is the U.S. government's official web portal to all federal, state and local government web resources and services.